GTH693 KAPC-KLAX
Flight info
| Callsign | GTH693 |
|---|---|
| Flight time | N/A |
| Altitude | 19000 |
| Route | NAPAA4 SGD SAU OAK AVE SADDE8 |
| Aircraft | C208/L-SDFGR/C |
Departure
| Time | 2026-04-29 04:18 |
|---|---|
| Airport | Napa County Airport (KAPC) |
Arrival
| Time | N/A |
|---|---|
| Airport | Los Angeles International Airport (KLAX) |
| Time | Latitude | Longitude | Altitude | Speed | Heading |
|---|---|---|---|---|---|
| 2026-04-29 04:13 | 38.21581 | -122.27349 | 21 ft | 0 kts | 245° |
| 2026-04-29 04:14 | 38.21578 | -122.27357 | 21 ft | 5 kts | 244° |
| 2026-04-29 04:14 | 38.21499 | -122.27355 | 23 ft | 16 kts | 175° |
| 2026-04-29 04:14 | 38.21397 | -122.27357 | 26 ft | 15 kts | 153° |
| 2026-04-29 04:14 | 38.21306 | -122.27300 | 26 ft | 14 kts | 153° |
| 2026-04-29 04:15 | 38.21217 | -122.27242 | 27 ft | 14 kts | 153° |
| 2026-04-29 04:15 | 38.21187 | -122.27222 | 27 ft | 0 kts | 153° |
| 2026-04-29 04:16 | 38.21184 | -122.27221 | 27 ft | 1 kts | 153° |
| 2026-04-29 04:16 | 38.21156 | -122.27202 | 27 ft | 7 kts | 152° |
| 2026-04-29 04:16 | 38.21097 | -122.27172 | 26 ft | 11 kts | 178° |
| 2026-04-29 04:16 | 38.21058 | -122.27305 | 26 ft | 38 kts | 258° |
| 2026-04-29 04:17 | 38.20958 | -122.27848 | 20 ft | 83 kts | 261° |
| 2026-04-29 04:17 | 38.20810 | -122.28622 | 127 ft | 93 kts | 252° |
| 2026-04-29 04:17 | 38.20629 | -122.29368 | 407 ft | 93 kts | 258° |
| 2026-04-29 04:17 | 38.20455 | -122.30184 | 612 ft | 94 kts | 256° |
| 2026-04-29 04:18 | 38.20277 | -122.30983 | 804 ft | 95 kts | 252° |
| 2026-04-29 04:18 | 38.19865 | -122.31584 | 1057 ft | 95 kts | 207° |
| 2026-04-29 04:18 | 38.19180 | -122.31625 | 1270 ft | 102 kts | 179° |
| 2026-04-29 04:18 | 38.18521 | -122.31775 | 1542 ft | 92 kts | 219° |
| 2026-04-29 04:19 | 38.18233 | -122.32449 | 1746 ft | 84 kts | 266° |
| 2026-04-29 04:19 | 38.18082 | -122.33144 | 1981 ft | 88 kts | 259° |
| 2026-04-29 04:19 | 38.17946 | -122.33865 | 2272 ft | 82 kts | 262° |
| 2026-04-29 04:19 | 38.17866 | -122.34615 | 2450 ft | 88 kts | 268° |
| 2026-04-29 04:20 | 38.17780 | -122.35347 | 2675 ft | 87 kts | 259° |
| 2026-04-29 04:20 | 38.17210 | -122.35751 | 2777 ft | 103 kts | 182° |
| 2026-04-29 04:20 | 38.16531 | -122.35402 | 2954 ft | 111 kts | 137° |
| 2026-04-29 04:20 | 38.16232 | -122.34526 | 3170 ft | 109 kts | 89° |
| 2026-04-29 04:21 | 38.16470 | -122.33656 | 3388 ft | 106 kts | 60° |
| 2026-04-29 04:21 | 38.16847 | -122.32835 | 3678 ft | 105 kts | 57° |
| 2026-04-29 04:21 | 38.17164 | -122.32016 | 3997 ft | 105 kts | 86° |
| 2026-04-29 04:21 | 38.16846 | -122.31222 | 4314 ft | 108 kts | 127° |
| 2026-04-29 04:22 | 38.16340 | -122.30480 | 4617 ft | 110 kts | 129° |
| 2026-04-29 04:22 | 38.15973 | -122.29679 | 4926 ft | 104 kts | 93° |
| 2026-04-29 04:22 | 38.16151 | -122.28842 | 5213 ft | 100 kts | 47° |
| 2026-04-29 04:22 | 38.21581 | -122.27349 | 21 ft | 0 kts | 245° |